RJFA(METAR)
04/26 16:38
RJFA 260738Z VRB07G20KT 9999 FEW010 BKN025 BKN035 14/08 Q1009
RMK 1CU010 5CU025 7CU035 A2981=
戻る
トップページへ戻る
IMOC Co,.Ltd.